createdAt,value
2023-01-17T00:05:01.210Z,5.57
2023-01-17T00:10:09.193Z,3.70
2023-01-17T00:15:11.823Z,3.15
2023-01-17T00:20:37.310Z,4.63
2023-01-17T00:25:59.157Z,3.67
2023-01-17T00:31:01.729Z,3.60
2023-01-17T00:36:05.265Z,5.50
2023-01-17T00:41:10.447Z,4.10
2023-01-17T00:46:31.610Z,3.60
2023-01-17T00:51:53.746Z,3.20
2023-01-17T00:57:15.197Z,3.92
2023-01-17T01:02:36.631Z,4.53
2023-01-17T01:07:57.670Z,3.78
2023-01-17T01:13:19.242Z,3.88
2023-01-17T01:18:40.329Z,4.00
2023-01-17T01:24:01.267Z,3.45
2023-01-17T01:29:22.239Z,3.40
2023-01-17T01:34:24.688Z,3.28
2023-01-17T01:39:27.099Z,4.57
2023-01-17T01:44:45.689Z,4.13
2023-01-17T01:49:48.887Z,3.53
2023-01-17T01:55:01.075Z,4.17
2023-01-17T02:05:38.282Z,2.65
2023-01-17T02:10:42.262Z,2.90
2023-01-17T02:15:56.538Z,3.80
2023-01-17T02:21:32.523Z,3.03
2023-01-17T02:26:53.414Z,2.88
2023-01-17T02:32:08.268Z,3.40
2023-01-17T02:37:26.685Z,2.67
2023-01-17T02:42:36.362Z,2.40
2023-01-17T02:47:38.837Z,3.23
2023-01-17T02:52:53.387Z,2.53
2023-01-17T02:58:24.271Z,2.67
2023-01-17T03:03:45.637Z,2.63
2023-01-17T03:08:49.607Z,2.60
2023-01-17T03:13:56.982Z,1.73
2023-01-17T03:18:59.504Z,2.75
2023-01-17T03:24:03.111Z,2.22
2023-01-17T03:29:05.527Z,1.87
2023-01-17T03:34:07.914Z,2.20
2023-01-17T03:39:10.766Z,2.93
2023-01-17T03:44:13.183Z,1.73
2023-01-17T03:49:16.752Z,2.13
2023-01-17T03:54:19.266Z,1.80
2023-01-17T03:59:22.063Z,2.05
2023-01-17T04:04:24.585Z,1.83
2023-01-17T04:09:27.048Z,2.55
2023-01-17T04:14:29.731Z,2.78
2023-01-17T04:19:33.873Z,1.87
2023-01-17T04:24:36.370Z,1.90
2023-01-17T04:29:38.865Z,2.30
2023-01-17T04:34:41.407Z,2.30
2023-01-17T04:39:43.823Z,2.20
2023-01-17T04:44:46.247Z,2.50
2023-01-17T04:49:48.729Z,1.80
2023-01-17T04:54:51.272Z,1.80
2023-01-17T04:59:53.767Z,2.33
2023-01-17T05:04:56.313Z,2.05
2023-01-17T05:10:00.976Z,2.53
2023-01-17T05:15:03.546Z,2.55
2023-01-17T05:20:06.524Z,2.57
2023-01-17T05:25:09.188Z,1.88
2023-01-17T05:30:12.181Z,2.17
2023-01-17T05:35:14.761Z,2.63
2023-01-17T05:40:18.683Z,2.33
2023-01-17T05:45:23.850Z,2.73
2023-01-17T05:50:28.749Z,2.10
2023-01-17T05:55:32.086Z,2.45
2023-01-17T06:00:34.504Z,2.00
2023-01-17T06:05:37.041Z,2.67
2023-01-17T06:10:39.706Z,2.30
2023-01-17T06:15:42.560Z,3.00
2023-01-17T06:20:45.236Z,1.58
2023-01-17T06:25:48.171Z,2.10
2023-01-17T06:30:51.008Z,2.78
2023-01-17T06:35:54.033Z,2.77
2023-01-17T06:41:00.326Z,3.10
2023-01-17T06:46:03.014Z,2.45
2023-01-17T06:51:05.606Z,3.07
2023-01-17T06:56:08.896Z,3.33
2023-01-17T07:01:13.675Z,2.40
2023-01-17T07:06:16.443Z,2.42
2023-01-17T07:11:18.962Z,3.00
2023-01-17T07:16:21.520Z,3.13
2023-01-17T07:21:24.103Z,2.20
2023-01-17T07:26:26.507Z,2.87
2023-01-17T07:31:29.026Z,2.92
2023-01-17T07:36:31.611Z,2.55
2023-01-17T07:41:41.273Z,3.20
2023-01-17T07:46:43.871Z,4.20
2023-01-17T07:51:47.954Z,3.83
2023-01-17T07:56:50.394Z,3.88
2023-01-17T08:01:53.184Z,4.38
2023-01-17T08:06:55.782Z,6.37
2023-01-17T08:11:58.378Z,3.28
2023-01-17T08:17:14.739Z,2.53
2023-01-17T08:22:17.211Z,3.20
2023-01-17T08:27:19.755Z,3.05
2023-01-17T08:32:23.474Z,4.40
2023-01-17T08:37:26.087Z,4.15
2023-01-17T08:42:28.710Z,4.13
2023-01-17T08:47:32.664Z,5.43
2023-01-17T08:52:36.176Z,5.13
2023-01-17T08:57:38.575Z,3.60
2023-01-17T09:02:41.050Z,3.80
2023-01-17T09:07:43.435Z,3.00
2023-01-17T09:12:45.912Z,2.63
2023-01-17T09:17:48.730Z,2.85
2023-01-17T09:22:52.339Z,3.10
2023-01-17T09:27:54.801Z,3.00
2023-01-17T09:32:57.295Z,2.00
2023-01-17T09:37:59.822Z,2.43
2023-01-17T09:43:05.598Z,2.28
2023-01-17T09:48:14.498Z,2.33
2023-01-17T09:53:20.957Z,3.70
2023-01-17T09:58:47.583Z,3.05
2023-01-17T10:04:12.442Z,3.03
2023-01-17T10:09:30.009Z,2.78
2023-01-17T10:14:39.941Z,2.77
2023-01-17T10:20:35.315Z,1.63
2023-01-17T10:25:39.645Z,2.33
2023-01-17T10:30:55.853Z,2.53
2023-01-17T10:36:18.496Z,2.40
2023-01-17T10:41:31.081Z,2.10
2023-01-17T10:46:42.115Z,2.17
2023-01-17T10:51:50.887Z,3.92
2023-01-17T10:56:53.492Z,2.13
2023-01-17T11:01:56.663Z,3.10
2023-01-17T11:07:17.451Z,2.30
2023-01-17T11:12:44.349Z,2.13
2023-01-17T11:18:02.854Z,2.67
2023-01-17T11:23:13.307Z,2.73
2023-01-17T11:28:30.772Z,2.20
2023-01-17T11:33:56.540Z,1.90
2023-01-17T11:39:04.739Z,2.33
2023-01-17T11:44:29.301Z,1.98
2023-01-17T11:49:31.789Z,2.53
2023-01-17T11:54:39.595Z,1.70
2023-01-17T11:59:56.160Z,2.90
2023-01-17T12:05:18.693Z,2.40
2023-01-17T12:10:32.004Z,2.20
2023-01-17T12:16:00.189Z,2.50
2023-01-17T12:21:51.224Z,2.50
2023-01-17T12:27:22.901Z,3.43
2023-01-17T12:32:43.444Z,3.22
2023-01-17T12:38:04.225Z,3.13
2023-01-17T12:43:41.615Z,2.80
2023-01-17T12:48:45.062Z,2.60
2023-01-17T12:54:04.413Z,2.35
2023-01-17T12:59:20.251Z,2.70
2023-01-17T13:04:58.750Z,2.63
2023-01-17T13:10:31.909Z,2.67
2023-01-17T13:15:37.816Z,2.08
2023-01-17T13:20:59.404Z,2.13
2023-01-17T13:26:02.218Z,2.50
2023-01-17T13:31:25.909Z,2.40
2023-01-17T13:36:34.247Z,2.33
2023-01-17T13:41:46.653Z,2.35
2023-01-17T13:47:01.565Z,2.10
2023-01-17T13:52:25.258Z,2.93
2023-01-17T13:57:30.002Z,2.47
2023-01-17T14:02:32.734Z,2.93
2023-01-17T14:07:42.886Z,2.90
2023-01-17T14:12:48.413Z,3.00
2023-01-17T14:17:57.098Z,2.90
2023-01-17T14:23:02.333Z,2.25
2023-01-17T14:28:32.152Z,2.80
2023-01-17T14:33:38.705Z,2.10
2023-01-17T14:38:47.246Z,2.13
2023-01-17T14:43:51.868Z,1.90
2023-01-17T14:49:05.982Z,1.73
2023-01-17T14:54:21.263Z,2.60
2023-01-17T14:59:23.809Z,1.80
2023-01-17T15:04:30.813Z,2.70
2023-01-17T15:09:36.593Z,2.87
2023-01-17T15:14:42.413Z,2.65
2023-01-17T15:19:48.539Z,3.23
2023-01-17T15:24:51.453Z,2.25
2023-01-17T15:29:55.536Z,2.95
2023-01-17T15:34:59.476Z,2.83
2023-01-17T15:40:22.614Z,3.10
2023-01-17T15:45:30.920Z,3.43
2023-01-17T15:50:39.796Z,2.20
2023-01-17T15:55:42.409Z,2.92
2023-01-17T16:00:46.986Z,3.37
2023-01-17T16:05:50.618Z,2.90
2023-01-17T16:10:55.411Z,3.20
2023-01-17T16:16:15.185Z,3.13
2023-01-17T16:21:23.667Z,3.28
2023-01-17T16:26:26.271Z,3.03
2023-01-17T16:31:28.716Z,2.63
2023-01-17T16:36:32.311Z,2.97
2023-01-17T16:41:34.900Z,2.88
2023-01-17T16:46:40.679Z,3.28
2023-01-17T16:51:47.548Z,2.23
2023-01-17T16:56:50.027Z,2.78
2023-01-17T17:01:53.194Z,3.00
2023-01-17T17:06:55.782Z,2.38
2023-01-17T17:11:58.537Z,2.58
2023-01-17T17:17:01.094Z,2.70
2023-01-17T17:22:06.609Z,2.63
2023-01-17T17:27:09.167Z,2.50
2023-01-17T17:32:11.728Z,2.38
2023-01-17T17:37:17.251Z,2.85
2023-01-17T17:42:20.712Z,1.93
2023-01-17T17:47:24.157Z,2.35
2023-01-17T17:52:28.091Z,2.60
2023-01-17T17:57:30.556Z,2.45
2023-01-17T18:02:33.001Z,2.72
2023-01-17T18:07:35.526Z,2.33
2023-01-17T18:12:38.076Z,2.58
2023-01-17T18:17:42.157Z,2.78
2023-01-17T18:22:44.565Z,2.80
2023-01-17T18:27:52.319Z,2.10
2023-01-17T18:32:55.050Z,2.97
2023-01-17T18:37:59.055Z,2.20
2023-01-17T18:43:01.691Z,2.60
2023-01-17T18:48:04.375Z,3.10
2023-01-17T18:53:06.848Z,2.58
2023-01-17T18:58:09.302Z,2.77
2023-01-17T19:03:11.819Z,2.83
2023-01-17T19:08:14.903Z,2.05
2023-01-17T19:13:17.472Z,1.97
2023-01-17T19:18:19.929Z,3.17
2023-01-17T19:23:23.282Z,2.10
2023-01-17T19:28:25.756Z,2.40
2023-01-17T19:33:28.260Z,2.08
2023-01-17T19:38:31.905Z,2.23
2023-01-17T19:43:34.559Z,2.67
2023-01-17T19:48:38.355Z,2.40
2023-01-17T19:53:41.798Z,2.38
2023-01-17T19:58:45.209Z,2.95
2023-01-17T20:03:48.778Z,1.67
2023-01-17T20:08:51.509Z,2.53
2023-01-17T20:13:56.617Z,2.50
2023-01-17T20:19:00.263Z,1.63
2023-01-17T20:24:06.048Z,2.50
2023-01-17T20:29:12.187Z,2.77
2023-01-17T20:34:18.771Z,1.98
2023-01-17T20:39:21.222Z,2.27
2023-01-17T20:44:24.030Z,2.25
2023-01-17T20:49:26.550Z,2.05
2023-01-17T20:54:29.104Z,1.63
2023-01-17T20:59:31.598Z,1.80
2023-01-17T21:04:34.017Z,1.97
2023-01-17T21:09:36.639Z,1.40
2023-01-17T21:14:40.745Z,1.85
2023-01-17T21:19:43.661Z,1.90
2023-01-17T21:24:46.136Z,1.48
2023-01-17T21:29:48.611Z,2.00
2023-01-17T21:34:52.381Z,1.70
2023-01-17T21:39:57.004Z,2.45
2023-01-17T21:44:59.419Z,1.90
2023-01-17T21:50:01.836Z,1.90
2023-01-17T21:55:22.954Z,2.07
2023-01-17T22:00:25.443Z,1.88
2023-01-17T22:05:27.871Z,2.05
2023-01-17T22:10:30.336Z,1.77
2023-01-17T22:15:36.592Z,2.03
2023-01-17T22:20:42.548Z,2.17
2023-01-17T22:25:45.408Z,1.90
2023-01-17T22:30:48.637Z,1.63
2023-01-17T22:35:58.832Z,1.80
2023-01-17T22:41:08.124Z,1.83
2023-01-17T22:46:12.615Z,1.80
2023-01-17T22:51:18.012Z,2.40
2023-01-17T22:56:22.663Z,1.60
2023-01-17T23:01:30.792Z,2.00
2023-01-17T23:06:35.864Z,1.27
2023-01-17T23:11:49.997Z,1.67
2023-01-17T23:17:11.702Z,1.13
2023-01-17T23:22:18.586Z,1.73
2023-01-17T23:27:42.358Z,1.77
2023-01-17T23:32:50.260Z,1.25
2023-01-17T23:38:11.190Z,1.55
2023-01-17T23:43:25.539Z,1.30
2023-01-17T23:48:28.033Z,2.15
2023-01-17T23:53:30.468Z,1.50
2023-01-17T23:58:34.024Z,1.50
